< < Back
Terminal Aerodrome Forecast


Current Version              Previous Versions:   1  2  3  4  5  6  7  8  9  

Terminal Aerodrome Forecast

628
FTUS42 KGSP 252329
TAFAVL
TAF
KAVL 252329Z 2600/2624 VRB03KT P6SM SCT040 BKN060
     FM260700 VRB02KT P6SM BKN020
      TEMPO 2609/2613 6SM BR BKN008
     FM261400 13004KT P6SM BKN035
     FM261700 15005KT P6SM VCSH BKN040 PROB30 2617/2623 4SM -TSRA
      BKN035CB=



Latest METAR

923
SAUS70 KWBC 261100 RRH
MTRAVL
METAR KAVL 261054Z 20004KT 10SM SCT042 BKN050 21/18 A3028 RMK AO2 SLP223
T02110178


USA.gov is the U.S. government's official web portal to all federal, state and local government web resources and services.